createdAt,value
2023-04-04T00:00:23.593Z,20.94
2023-04-04T00:02:50.118Z,20.98
2023-04-04T00:05:16.606Z,20.96
2023-04-04T00:07:43.007Z,20.96
2023-04-04T00:10:09.364Z,20.95
2023-04-04T00:12:35.771Z,20.96
2023-04-04T00:15:02.160Z,20.97
2023-04-04T00:17:28.521Z,20.93
2023-04-04T00:19:54.909Z,20.92
2023-04-04T00:22:21.245Z,20.96
2023-04-04T00:24:47.573Z,20.93
2023-04-04T00:27:13.948Z,20.96
2023-04-04T00:29:40.303Z,20.93
2023-04-04T00:32:06.849Z,20.93
2023-04-04T00:34:33.220Z,20.90
2023-04-04T00:36:59.551Z,20.94
2023-04-04T00:39:25.890Z,20.92
2023-04-04T00:41:52.221Z,20.87
2023-04-04T00:44:18.597Z,20.92
2023-04-04T00:46:44.920Z,20.94
2023-04-04T00:49:11.306Z,20.88
2023-04-04T00:51:37.685Z,20.93
2023-04-04T00:54:04.293Z,20.91
2023-04-04T00:56:30.611Z,20.95
2023-04-04T00:58:57.026Z,20.91
2023-04-04T01:01:23.498Z,20.88
2023-04-04T01:03:49.934Z,20.87
2023-04-04T01:06:16.310Z,20.87
2023-04-04T01:08:42.737Z,20.84
2023-04-04T01:11:09.140Z,20.87
2023-04-04T01:13:35.660Z,20.89
2023-04-04T01:16:01.998Z,20.86
2023-04-04T01:18:28.407Z,20.88
2023-04-04T01:20:54.779Z,20.85
2023-04-04T01:23:21.158Z,20.85
2023-04-04T01:25:47.473Z,20.77
2023-04-04T01:28:13.774Z,20.81
2023-04-04T01:30:40.320Z,20.89
2023-04-04T01:33:06.971Z,20.81
2023-04-04T01:35:33.374Z,20.85
2023-04-04T01:37:59.776Z,20.84
2023-04-04T01:40:26.152Z,20.88
2023-04-04T01:42:52.552Z,20.92
2023-04-04T01:45:18.910Z,20.82
2023-04-04T01:47:45.320Z,20.85
2023-04-04T01:50:11.745Z,20.84
2023-04-04T01:52:38.296Z,20.86
2023-04-04T01:55:04.615Z,20.90
2023-04-04T01:57:30.963Z,20.87
2023-04-04T01:59:57.295Z,20.85
2023-04-04T02:02:23.639Z,20.87
2023-04-04T02:04:50.044Z,20.84
2023-04-04T02:07:16.429Z,20.91
2023-04-04T02:09:42.757Z,20.86
2023-04-04T02:12:09.117Z,20.86
2023-04-04T02:14:35.579Z,20.83
2023-04-04T02:17:01.962Z,20.84
2023-04-04T02:19:28.340Z,20.86
2023-04-04T02:21:54.769Z,20.95
2023-04-04T02:24:21.133Z,20.85
2023-04-04T02:26:47.504Z,20.84
2023-04-04T02:29:13.907Z,20.83
2023-04-04T02:31:40.331Z,20.87
2023-04-04T02:34:06.756Z,20.86
2023-04-04T02:36:33.105Z,20.86
2023-04-04T02:38:59.658Z,20.84
2023-04-04T02:41:26.015Z,20.78
2023-04-04T02:43:52.402Z,20.78
2023-04-04T02:46:21.623Z,20.82
2023-04-04T02:48:48.553Z,20.86
2023-04-04T02:51:14.881Z,20.82
2023-04-04T02:53:41.209Z,20.82
2023-04-04T02:56:07.588Z,20.81
2023-04-04T02:58:33.977Z,20.81
2023-04-04T03:01:00.361Z,20.82
2023-04-04T03:03:26.826Z,20.80
2023-04-04T03:05:53.228Z,20.81
2023-04-04T03:08:19.543Z,20.84
2023-04-04T03:10:45.856Z,20.82
2023-04-04T03:13:12.335Z,20.78
2023-04-04T03:15:38.664Z,20.77
2023-04-04T03:18:05.089Z,20.79
2023-04-04T03:20:31.604Z,20.82
2023-04-04T03:22:57.958Z,20.78
2023-04-04T03:25:24.425Z,20.84
2023-04-04T03:27:50.736Z,20.85
2023-04-04T03:30:17.106Z,20.75
2023-04-04T03:32:43.494Z,20.82
2023-04-04T03:35:09.867Z,20.80
2023-04-04T03:37:36.253Z,20.91
2023-04-04T03:40:02.645Z,20.85
2023-04-04T03:42:29.028Z,20.76
2023-04-04T03:44:55.355Z,20.85
2023-04-04T03:47:21.769Z,20.85
2023-04-04T03:49:48.235Z,20.76
2023-04-04T03:52:14.575Z,20.83
2023-04-04T03:54:40.963Z,20.78
2023-04-04T03:57:07.310Z,20.80
2023-04-04T03:59:33.685Z,20.81
2023-04-04T04:02:00.096Z,20.81
2023-04-04T04:04:26.442Z,20.82
2023-04-04T04:06:52.887Z,20.76
2023-04-04T04:09:19.288Z,20.80
2023-04-04T04:11:45.663Z,20.79
2023-04-04T04:14:12.030Z,20.76
2023-04-04T04:16:38.475Z,20.79
2023-04-04T04:19:05.094Z,20.80
2023-04-04T04:21:31.452Z,20.79
2023-04-04T04:23:57.880Z,20.77
2023-04-04T04:26:24.678Z,20.76
2023-04-04T04:28:51.105Z,20.76
2023-04-04T04:31:17.449Z,20.81
2023-04-04T04:33:43.832Z,20.81
2023-04-04T04:36:10.183Z,20.85
2023-04-04T04:38:36.547Z,20.87
2023-04-04T04:41:03.002Z,20.89
2023-04-04T04:43:29.410Z,20.76
2023-04-04T04:45:55.804Z,20.82
2023-04-04T04:48:22.144Z,20.83
2023-04-04T04:50:48.496Z,20.81
2023-04-04T04:53:14.905Z,20.80
2023-04-04T04:55:41.289Z,20.82
2023-04-04T04:58:07.765Z,20.79
2023-04-04T05:00:34.139Z,20.78
2023-04-04T05:03:00.639Z,20.78
2023-04-04T05:05:27.049Z,20.74
2023-04-04T05:07:53.418Z,20.76
2023-04-04T05:10:19.763Z,20.73
2023-04-04T05:12:46.138Z,20.63
2023-04-04T05:15:12.522Z,20.67
2023-04-04T05:17:39.381Z,20.67
2023-04-04T05:20:05.866Z,20.67
2023-04-04T05:22:32.279Z,20.74
2023-04-04T05:24:58.675Z,20.74
2023-04-04T05:27:25.022Z,20.70
2023-04-04T05:29:51.335Z,20.75
2023-04-04T05:32:17.684Z,20.69
2023-04-04T05:34:44.098Z,20.71
2023-04-04T05:37:10.429Z,20.65
2023-04-04T05:39:36.796Z,20.69
2023-04-04T05:42:03.200Z,20.66
2023-04-04T05:44:29.514Z,20.57
2023-04-04T05:46:56.049Z,20.59
2023-04-04T05:49:22.685Z,20.58
2023-04-04T05:51:49.002Z,20.65
2023-04-04T05:54:15.555Z,20.62
2023-04-04T05:56:41.887Z,20.64
2023-04-04T05:59:08.235Z,20.79
2023-04-04T06:01:34.967Z,20.78
2023-04-04T06:04:01.781Z,20.78
2023-04-04T06:06:28.269Z,20.80
2023-04-04T06:08:54.612Z,20.78
2023-04-04T06:11:20.939Z,20.81
2023-04-04T06:13:47.305Z,20.87
2023-04-04T06:16:13.780Z,20.85
2023-04-04T06:18:40.180Z,20.85
2023-04-04T06:21:06.728Z,20.85
2023-04-04T06:23:33.146Z,20.78
2023-04-04T06:25:59.474Z,20.89
2023-04-04T06:28:25.841Z,20.86
2023-04-04T06:30:52.148Z,20.88
2023-04-04T06:33:18.506Z,20.90
2023-04-04T06:35:46.115Z,20.91
2023-04-04T06:38:12.503Z,20.96
2023-04-04T06:40:39.115Z,21.04
2023-04-04T06:43:05.628Z,21.01
2023-04-04T06:45:31.944Z,21.15
2023-04-04T06:47:58.302Z,21.16
2023-04-04T06:50:24.725Z,21.28
2023-04-04T06:52:51.258Z,21.28
2023-04-04T06:55:17.614Z,21.34
2023-04-04T06:57:43.988Z,21.34
2023-04-04T07:00:10.395Z,21.54
2023-04-04T07:02:36.904Z,21.64
2023-04-04T07:05:03.325Z,21.55
2023-04-04T07:07:29.867Z,21.69
2023-04-04T07:09:56.235Z,21.72
2023-04-04T07:12:22.607Z,21.70
2023-04-04T07:14:49.152Z,21.73
2023-04-04T07:17:24.188Z,21.77
2023-04-04T07:19:51.627Z,21.79
2023-04-04T07:22:18.043Z,21.88
2023-04-04T07:24:44.372Z,21.86
2023-04-04T07:27:10.704Z,22.14
2023-04-04T07:29:37.032Z,22.11
2023-04-04T07:32:03.478Z,22.05
2023-04-04T07:34:29.848Z,22.08
2023-04-04T07:36:56.225Z,22.09
2023-04-04T07:39:22.672Z,22.19
2023-04-04T07:41:48.986Z,22.18
2023-04-04T07:44:15.332Z,22.30
2023-04-04T07:46:41.719Z,22.32
2023-04-04T07:49:08.155Z,22.20
2023-04-04T07:51:34.532Z,22.27
2023-04-04T07:54:00.851Z,22.31
2023-04-04T07:56:27.164Z,22.30
2023-04-04T07:58:53.582Z,22.42
2023-04-04T08:01:19.972Z,22.52
2023-04-04T08:03:46.623Z,22.49
2023-04-04T08:06:13.127Z,22.56
2023-04-04T08:08:39.461Z,22.59
2023-04-04T08:11:05.800Z,22.50
2023-04-04T08:13:32.417Z,22.56
2023-04-04T08:15:58.748Z,22.62
2023-04-04T08:18:25.181Z,22.68
2023-04-04T08:20:51.716Z,22.63
2023-04-04T08:23:18.038Z,22.62
2023-04-04T08:25:44.367Z,22.79
2023-04-04T08:28:10.822Z,22.62
2023-04-04T08:30:37.384Z,22.72
2023-04-04T08:33:06.251Z,22.63
2023-04-04T08:35:32.968Z,22.73
2023-04-04T08:37:59.318Z,22.63
2023-04-04T08:40:25.691Z,22.76
2023-04-04T08:42:52.018Z,22.71
2023-04-04T08:45:18.355Z,22.71
2023-04-04T08:47:44.783Z,22.72
2023-04-04T08:50:11.346Z,22.75
2023-04-04T08:52:37.664Z,22.84
2023-04-04T08:55:03.999Z,22.71
2023-04-04T08:57:30.367Z,22.88
2023-04-04T08:59:56.810Z,22.86
2023-04-04T09:02:23.604Z,22.89
2023-04-04T09:05:02.476Z,22.94
2023-04-04T09:07:32.370Z,22.82
2023-04-04T09:09:58.778Z,22.79
2023-04-04T09:12:25.128Z,22.91
2023-04-04T09:14:51.479Z,22.85
2023-04-04T09:17:17.898Z,22.94
2023-04-04T09:19:44.333Z,23.00
2023-04-04T09:22:10.668Z,22.83
2023-04-04T09:24:36.988Z,22.94
2023-04-04T09:27:03.555Z,22.90
2023-04-04T09:29:30.007Z,22.75
2023-04-04T09:31:56.424Z,22.98
2023-04-04T09:34:22.819Z,22.85
2023-04-04T09:36:49.358Z,22.84
2023-04-04T09:39:15.696Z,22.77
2023-04-04T09:41:42.257Z,22.98
2023-04-04T09:44:08.739Z,22.88
2023-04-04T09:46:35.312Z,22.96
2023-04-04T09:49:01.756Z,23.02
2023-04-04T09:51:28.201Z,22.90
2023-04-04T09:53:54.594Z,23.09
2023-04-04T09:56:21.002Z,22.95
2023-04-04T10:01:15.778Z,22.94
2023-04-04T10:03:42.160Z,23.08
2023-04-04T10:06:08.663Z,23.03
2023-04-04T10:08:35.090Z,22.94
2023-04-04T10:11:09.818Z,22.90
2023-04-04T10:13:38.102Z,22.89
2023-04-04T10:16:04.633Z,22.85
2023-04-04T10:18:31.078Z,22.92
2023-04-04T10:21:12.093Z,22.81
2023-04-04T10:23:40.948Z,22.77
2023-04-04T10:26:07.373Z,22.79
2023-04-04T10:28:33.700Z,22.72
2023-04-04T10:31:06.433Z,22.71
2023-04-04T10:33:33.516Z,22.79
2023-04-04T10:36:00.077Z,22.84
2023-04-04T10:38:26.468Z,22.83
2023-04-04T10:40:52.802Z,22.80
2023-04-04T10:43:19.263Z,22.72
2023-04-04T10:45:45.752Z,22.66
2023-04-04T10:48:12.226Z,22.66
2023-04-04T10:50:38.708Z,22.59
2023-04-04T10:53:05.075Z,22.67
2023-04-04T10:55:31.459Z,22.70
2023-04-04T10:57:57.825Z,22.76
2023-04-04T11:00:24.219Z,22.72
2023-04-04T11:02:50.605Z,22.65
2023-04-04T11:05:16.969Z,22.68
2023-04-04T11:07:44.625Z,22.61
2023-04-04T11:10:13.696Z,22.52
2023-04-04T11:12:40.082Z,22.53
2023-04-04T11:15:06.461Z,22.47
2023-04-04T11:17:32.880Z,22.58
2023-04-04T11:19:59.252Z,22.61
2023-04-04T11:22:25.639Z,22.46
2023-04-04T11:24:52.011Z,22.42
2023-04-04T11:27:18.537Z,22.43
2023-04-04T11:29:44.904Z,22.43
2023-04-04T11:32:11.277Z,22.40
2023-04-04T11:34:37.628Z,22.40
2023-04-04T11:37:03.930Z,22.48
2023-04-04T11:39:30.321Z,22.46
2023-04-04T11:41:56.655Z,22.32
2023-04-04T11:44:22.995Z,22.36
2023-04-04T11:46:51.087Z,22.39
2023-04-04T11:49:17.578Z,22.38
2023-04-04T11:51:44.006Z,22.38
2023-04-04T11:54:10.503Z,22.35
2023-04-04T11:56:36.891Z,22.41
2023-04-04T11:59:11.050Z,22.35
2023-04-04T12:01:38.276Z,22.35
2023-04-04T12:04:04.616Z,22.37
2023-04-04T12:06:30.992Z,22.32
2023-04-04T12:08:57.321Z,22.33
2023-04-04T12:11:23.701Z,22.43
2023-04-04T12:13:50.069Z,22.44
2023-04-04T12:16:16.409Z,22.43
2023-04-04T12:18:42.801Z,22.48
2023-04-04T12:21:09.142Z,22.49
2023-04-04T12:23:35.511Z,22.43
2023-04-04T12:26:01.907Z,22.35
2023-04-04T12:28:28.457Z,22.37
2023-04-04T12:30:54.828Z,22.39
2023-04-04T12:33:21.196Z,22.34
2023-04-04T12:35:47.629Z,22.37
2023-04-04T12:38:13.983Z,22.34
2023-04-04T12:40:40.448Z,22.35
2023-04-04T12:43:06.861Z,22.35
2023-04-04T12:45:33.179Z,22.29
2023-04-04T12:47:59.586Z,22.25
2023-04-04T12:50:26.012Z,22.26
2023-04-04T12:52:52.625Z,22.15
2023-04-04T12:55:19.671Z,22.26
2023-04-04T12:57:46.063Z,22.27
2023-04-04T13:00:12.392Z,22.16
2023-04-04T13:02:39.099Z,22.22
2023-04-04T13:05:05.571Z,22.15
2023-04-04T13:07:31.967Z,22.17
2023-04-04T13:09:58.340Z,22.18
2023-04-04T13:12:24.681Z,22.26
2023-04-04T13:14:51.009Z,22.19
2023-04-04T13:17:17.390Z,22.16
2023-04-04T13:19:43.725Z,22.25
2023-04-04T13:22:10.069Z,22.21
2023-04-04T13:24:36.776Z,22.25
2023-04-04T13:27:03.651Z,22.16
2023-04-04T13:29:29.975Z,22.18
2023-04-04T13:31:56.287Z,22.17
2023-04-04T13:34:22.686Z,22.15
2023-04-04T13:36:49.077Z,22.16
2023-04-04T13:39:15.491Z,22.18
2023-04-04T13:41:41.893Z,22.13
2023-04-04T13:44:08.234Z,22.10
2023-04-04T13:46:34.741Z,22.08
2023-04-04T13:49:01.211Z,22.12
2023-04-04T13:51:27.559Z,22.13
2023-04-04T13:53:53.934Z,22.08
2023-04-04T13:56:20.586Z,22.08
2023-04-04T13:58:47.273Z,22.10
2023-04-04T14:01:13.727Z,22.07
2023-04-04T14:03:40.245Z,22.23
2023-04-04T14:06:10.786Z,22.24
2023-04-04T14:08:37.646Z,22.21
2023-04-04T14:11:04.035Z,22.12
2023-04-04T14:13:30.363Z,22.13
2023-04-04T14:15:56.795Z,22.14
2023-04-04T14:18:23.224Z,22.09
2023-04-04T14:20:49.666Z,22.17
2023-04-04T14:23:16.092Z,22.13
2023-04-04T14:25:42.742Z,22.16
2023-04-04T14:28:09.709Z,22.18
2023-04-04T14:30:36.088Z,22.13
2023-04-04T14:33:02.556Z,22.16
2023-04-04T14:35:29.027Z,22.08
2023-04-04T14:37:55.996Z,21.99
2023-04-04T14:40:22.436Z,22.06
2023-04-04T14:42:48.763Z,22.03
2023-04-04T14:45:15.144Z,22.07
2023-04-04T14:47:41.564Z,22.01
2023-04-04T14:50:07.997Z,22.11
2023-04-04T14:52:34.392Z,22.06
2023-04-04T14:55:00.846Z,21.97
2023-04-04T14:57:27.247Z,21.90
2023-04-04T14:59:53.708Z,21.98
2023-04-04T15:02:20.324Z,22.05
2023-04-04T15:04:46.714Z,22.00
2023-04-04T15:07:13.088Z,21.99
2023-04-04T15:09:39.439Z,21.93
2023-04-04T15:12:05.904Z,21.92
2023-04-04T15:14:32.284Z,22.03
2023-04-04T15:16:58.633Z,21.94
2023-04-04T15:19:24.972Z,22.10
2023-04-04T15:21:51.285Z,22.10
2023-04-04T15:24:17.657Z,22.03
2023-04-04T15:26:43.987Z,22.04
2023-04-04T15:29:10.305Z,22.02
2023-04-04T15:31:36.703Z,22.07
2023-04-04T15:34:03.140Z,22.07
2023-04-04T15:36:29.537Z,22.04
2023-04-04T15:38:55.896Z,21.99
2023-04-04T15:41:22.382Z,21.98
2023-04-04T15:43:48.703Z,22.01
2023-04-04T15:46:15.058Z,21.96
2023-04-04T15:48:41.409Z,21.91
2023-04-04T15:51:07.723Z,22.02
2023-04-04T15:53:34.106Z,22.03
2023-04-04T15:56:00.738Z,22.05
2023-04-04T15:58:27.071Z,22.03
2023-04-04T16:00:53.465Z,22.07
2023-04-04T16:03:19.948Z,22.06
2023-04-04T16:05:46.487Z,22.02
2023-04-04T16:08:12.853Z,22.08
2023-04-04T16:10:39.418Z,21.92
2023-04-04T16:13:06.138Z,21.97
2023-04-04T16:15:32.474Z,22.04
2023-04-04T16:17:58.980Z,22.00
2023-04-04T16:20:25.414Z,22.03
2023-04-04T16:22:52.928Z,21.94
2023-04-04T16:25:20.378Z,21.94
2023-04-04T16:27:46.817Z,21.93
2023-04-04T16:30:13.190Z,21.95
2023-04-04T16:32:39.604Z,21.96
2023-04-04T16:35:06.187Z,21.92
2023-04-04T16:37:32.556Z,21.89
2023-04-04T16:39:58.907Z,21.90
2023-04-04T16:42:25.229Z,22.06
2023-04-04T16:44:51.574Z,22.00
2023-04-04T16:47:17.883Z,21.97
2023-04-04T16:49:44.260Z,21.97
2023-04-04T16:52:10.661Z,22.00
2023-04-04T16:54:37.029Z,22.13
2023-04-04T16:57:03.367Z,21.93
2023-04-04T16:59:29.797Z,22.01
2023-04-04T17:01:56.172Z,21.98
2023-04-04T17:04:22.602Z,21.98
2023-04-04T17:06:49.175Z,21.94
2023-04-04T17:09:15.627Z,22.07
2023-04-04T17:11:41.983Z,22.01
2023-04-04T17:14:08.344Z,21.96
2023-04-04T17:16:34.749Z,21.99
2023-04-04T17:19:01.363Z,21.96
2023-04-04T17:21:27.897Z,21.93
2023-04-04T17:23:54.549Z,21.98
2023-04-04T17:26:20.935Z,21.88
2023-04-04T17:28:47.392Z,21.97
2023-04-04T17:31:13.759Z,22.03
2023-04-04T17:33:40.101Z,21.94
2023-04-04T17:36:06.491Z,21.92
2023-04-04T17:38:32.996Z,21.97
2023-04-04T17:40:59.482Z,22.04
2023-04-04T17:43:26.228Z,21.94
2023-04-04T17:45:52.604Z,21.96
2023-04-04T17:48:18.952Z,21.97
2023-04-04T17:50:45.480Z,21.97
2023-04-04T17:53:11.969Z,21.95
2023-04-04T17:55:38.364Z,22.07
2023-04-04T17:58:04.806Z,22.09
2023-04-04T18:00:31.204Z,22.02
2023-04-04T18:02:57.680Z,22.04
2023-04-04T18:05:24.328Z,21.92
2023-04-04T18:07:50.659Z,21.89
2023-04-04T18:10:17.001Z,21.89
2023-04-04T18:12:43.497Z,21.86
2023-04-04T18:15:09.939Z,21.88
2023-04-04T18:17:36.392Z,21.86
2023-04-04T18:20:02.772Z,21.83
2023-04-04T18:22:29.140Z,21.78
2023-04-04T18:24:55.479Z,21.87
2023-04-04T18:27:21.824Z,21.87
2023-04-04T18:29:48.187Z,21.86
2023-04-04T18:32:14.583Z,21.85
2023-04-04T18:34:40.900Z,21.83
2023-04-04T18:37:07.262Z,21.83
2023-04-04T18:39:33.838Z,21.82
2023-04-04T18:42:00.217Z,21.83
2023-04-04T18:44:26.599Z,21.80
2023-04-04T18:46:53.009Z,21.81
2023-04-04T18:49:19.343Z,21.81
2023-04-04T18:51:45.657Z,21.82
2023-04-04T18:54:12.206Z,21.80
2023-04-04T18:56:39.002Z,21.80
2023-04-04T18:59:05.729Z,21.82
2023-04-04T19:01:32.174Z,21.76
2023-04-04T19:03:58.595Z,21.76
2023-04-04T19:06:24.967Z,21.77
2023-04-04T19:08:51.297Z,21.77
2023-04-04T19:11:17.650Z,21.75
2023-04-04T19:13:44.180Z,21.73
2023-04-04T19:16:10.539Z,21.73
2023-04-04T19:18:36.985Z,21.79
2023-04-04T19:21:03.406Z,21.69
2023-04-04T19:23:30.009Z,21.65
2023-04-04T19:25:56.333Z,21.64
2023-04-04T19:28:22.739Z,21.67
2023-04-04T19:30:49.184Z,21.73
2023-04-04T19:33:15.556Z,21.68
2023-04-04T19:35:42.158Z,21.74
2023-04-04T19:38:08.642Z,21.74
2023-04-04T19:40:34.947Z,21.79
2023-04-04T19:43:01.445Z,21.71
2023-04-04T19:45:27.821Z,21.74
2023-04-04T19:47:54.190Z,21.67
2023-04-04T19:50:20.537Z,21.71
2023-04-04T19:52:46.900Z,21.70
2023-04-04T19:55:13.406Z,21.71
2023-04-04T19:57:39.748Z,21.70
2023-04-04T20:00:06.077Z,21.73
2023-04-04T20:02:32.567Z,21.71
2023-04-04T20:04:59.199Z,21.66
2023-04-04T20:07:25.652Z,21.69
2023-04-04T20:09:52.024Z,21.69
2023-04-04T20:12:18.463Z,21.65
2023-04-04T20:14:44.928Z,21.59
2023-04-04T20:17:11.328Z,21.65
2023-04-04T20:19:37.762Z,21.66
2023-04-04T20:22:04.120Z,21.65
2023-04-04T20:24:30.692Z,21.59
2023-04-04T20:26:57.071Z,21.65
2023-04-04T20:29:23.399Z,21.61
2023-04-04T20:31:49.854Z,21.65
2023-04-04T20:34:16.268Z,21.62
2023-04-04T20:36:42.616Z,21.60
2023-04-04T20:39:08.937Z,21.63
2023-04-04T20:41:35.329Z,21.63
2023-04-04T20:44:01.844Z,21.65
2023-04-04T20:46:28.174Z,21.62
2023-04-04T20:48:54.987Z,21.60
2023-04-04T20:51:24.117Z,21.55
2023-04-04T20:53:50.737Z,21.61
2023-04-04T20:56:17.091Z,21.59
2023-04-04T20:58:43.462Z,21.60
2023-04-04T21:01:10.254Z,21.61
2023-04-04T21:03:36.686Z,21.58
2023-04-04T21:06:03.039Z,21.59
2023-04-04T21:10:55.668Z,21.55
2023-04-04T21:13:22.007Z,21.57
2023-04-04T21:15:48.343Z,21.58
2023-04-04T21:18:14.751Z,21.54
2023-04-04T21:20:41.530Z,21.53
2023-04-04T21:23:08.117Z,21.54
2023-04-04T21:25:34.456Z,21.55
2023-04-04T21:28:00.815Z,21.56
2023-04-04T21:30:27.253Z,21.53
2023-04-04T21:32:53.705Z,21.56
2023-04-04T21:35:20.096Z,21.56
2023-04-04T21:37:46.475Z,21.57
2023-04-04T21:40:12.905Z,21.53
2023-04-04T21:42:39.265Z,21.52
2023-04-04T21:45:05.634Z,21.57
2023-04-04T21:47:32.818Z,21.55
2023-04-04T21:49:59.223Z,21.57
2023-04-04T21:52:25.542Z,21.59
2023-04-04T21:54:51.861Z,21.51
2023-04-04T21:57:18.225Z,21.55
2023-04-04T21:59:44.609Z,21.56
2023-04-04T22:02:11.092Z,21.52
2023-04-04T22:04:37.571Z,21.53
2023-04-04T22:07:04.078Z,21.56
2023-04-04T22:09:30.472Z,21.56
2023-04-04T22:11:56.792Z,21.51
2023-04-04T22:14:23.112Z,21.55
2023-04-04T22:16:49.445Z,21.50
2023-04-04T22:19:15.799Z,21.48
2023-04-04T22:21:42.203Z,21.51
2023-04-04T22:24:08.560Z,21.55
2023-04-04T22:26:35.167Z,21.58
2023-04-04T22:29:01.483Z,21.49
2023-04-04T22:31:27.886Z,21.59
2023-04-04T22:33:54.305Z,21.51
2023-04-04T22:36:20.693Z,21.54
2023-04-04T22:38:47.048Z,21.55
2023-04-04T22:41:13.354Z,21.49
2023-04-04T22:43:39.748Z,21.45
2023-04-04T22:46:06.185Z,21.46
2023-04-04T22:48:32.600Z,21.53
2023-04-04T22:50:59.006Z,21.51
2023-04-04T22:53:25.359Z,21.56
2023-04-04T22:55:51.745Z,21.51
2023-04-04T22:58:18.115Z,21.46
2023-04-04T23:00:44.525Z,21.49
2023-04-04T23:03:10.892Z,21.47
2023-04-04T23:05:37.347Z,21.52
2023-04-04T23:08:03.702Z,21.50
2023-04-04T23:10:30.085Z,21.47
2023-04-04T23:12:56.414Z,21.52
2023-04-04T23:15:22.808Z,21.52
2023-04-04T23:17:49.235Z,21.48
2023-04-04T23:20:15.648Z,21.53
2023-04-04T23:22:41.995Z,21.50
2023-04-04T23:25:08.804Z,21.50
2023-04-04T23:27:35.137Z,21.48
2023-04-04T23:30:01.705Z,21.48
2023-04-04T23:32:28.324Z,21.51
2023-04-04T23:34:54.776Z,21.45
2023-04-04T23:37:21.198Z,21.51
2023-04-04T23:39:47.533Z,21.49
2023-04-04T23:42:14.027Z,21.46
2023-04-04T23:44:40.364Z,21.47
2023-04-04T23:47:06.725Z,21.48
2023-04-04T23:49:33.138Z,21.48
2023-04-04T23:51:59.529Z,21.45
2023-04-04T23:54:25.876Z,21.51
2023-04-04T23:56:52.483Z,21.47
2023-04-04T23:59:18.857Z,21.46
